Time;durP1;ratioP1;P1;durP2;ratioP2;P2;SDS_P1;SDS_P2;PMS_P1;PMS_P2;Temp;Humidity;BMP_temperature;BMP_pressure;BME280_temperature;BME280_humidity;BME280_pressure;Samples;Min_cycle;Max_cycle;Signal;HPM_P1;HPM_P2
2024/02/20 00:01:01;;;;;;;55.00;9.02;;;6.20;99.90;;;;;;7371964;19;20030;-66
2024/02/20 00:03:27;;;;;;;56.67;11.00;;;6.20;99.90;;;;;;7372247;19;20025;-67
2024/02/20 00:05:54;;;;;;;47.63;8.38;;;6.10;99.90;;;;;;7370469;19;20026;-65
2024/02/20 00:08:20;;;;;;;56.92;10.00;;;6.10;99.90;;;;;;7381192;19;20015;-67
2024/02/20 00:10:46;;;;;;;49.72;9.52;;;6.10;99.90;;;;;;7366094;19;20094;-66
2024/02/20 00:13:12;;;;;;;47.80;8.63;;;6.00;99.90;;;;;;7369935;19;20025;-66
2024/02/20 00:15:40;;;;;;;49.67;8.95;;;6.00;99.90;;;;;;7370252;19;20483;-66
2024/02/20 00:18:08;;;;;;;51.58;9.85;;;6.00;99.90;;;;;;7369697;19;20546;-66
2024/02/20 00:20:35;;;;;;;49.25;9.32;;;5.90;99.90;;;;;;7368170;19;20026;-66
2024/02/20 00:23:02;;;;;;;46.70;10.23;;;5.90;99.90;;;;;;7373166;19;20035;-66
2024/02/20 00:25:29;;;;;;;51.70;9.15;;;5.90;99.90;;;;;;7371217;19;20450;-66
2024/02/20 00:27:56;;;;;;;58.30;10.02;;;5.90;99.90;;;;;;7373801;19;20015;-66
2024/02/20 00:30:23;;;;;;;50.55;8.68;;;5.80;99.90;;;;;;7371211;19;20783;-65
2024/02/20 00:32:50;;;;;;;52.75;9.88;;;5.80;99.90;;;;;;7375334;19;20719;-67
2024/02/20 00:35:17;;;;;;;56.08;9.98;;;5.80;99.90;;;;;;7370546;19;20812;-66
2024/02/20 00:37:44;;;;;;;67.22;10.88;;;5.80;99.90;;;;;;7374143;19;20026;-65
2024/02/20 00:40:11;;;;;;;53.33;10.00;;;5.80;99.90;;;;;;7379440;19;20513;-64
2024/02/20 00:42:38;;;;;;;53.17;9.75;;;5.80;99.90;;;;;;7379704;19;20026;-64
2024/02/20 00:45:06;;;;;;;56.72;9.98;;;5.80;99.90;;;;;;7375984;19;20935;-64
2024/02/20 00:47:33;;;;;;;62.03;10.05;;;5.80;99.90;;;;;;7377233;19;20014;-66
2024/02/20 00:50:00;;;;;;;58.92;9.63;;;5.80;99.90;;;;;;7375836;19;20039;-65
2024/02/20 00:52:27;;;;;;;56.55;10.50;;;5.80;99.90;;;;;;7376461;19;20049;-67
2024/02/20 00:54:54;;;;;;;56.38;9.48;;;5.80;99.90;;;;;;7369973;19;20108;-66
2024/02/20 00:57:21;;;;;;;52.60;8.07;;;5.80;99.90;;;;;;7372632;19;20045;-66
2024/02/20 00:59:48;;;;;;;53.85;9.23;;;5.80;99.90;;;;;;7369696;19;20068;-66
2024/02/20 01:02:15;;;;;;;58.70;8.57;;;5.80;99.90;;;;;;7373455;19;20043;-66
2024/02/20 01:04:42;;;;;;;61.17;9.95;;;5.80;99.90;;;;;;7368450;19;20023;-66
2024/02/20 01:07:10;;;;;;;50.08;8.25;;;5.80;99.90;;;;;;7368966;19;20022;-65
2024/02/20 01:09:37;;;;;;;58.78;8.95;;;5.80;99.90;;;;;;7365643;19;20010;-65
2024/02/20 01:12:05;;;;;;;62.03;8.80;;;5.80;99.90;;;;;;7368171;19;20022;-66
2024/02/20 01:14:32;;;;;;;55.85;8.95;;;5.90;99.90;;;;;;7365917;19;20931;-67
2024/02/20 01:16:59;;;;;;;50.25;7.95;;;5.90;99.90;;;;;;7371574;19;20432;-65
2024/02/20 01:19:26;;;;;;;53.78;9.25;;;5.90;99.90;;;;;;7378092;19;20082;-64
2024/02/20 01:21:52;;;;;;;43.20;8.10;;;5.90;99.90;;;;;;7375926;19;20015;-64
2024/02/20 01:24:19;;;;;;;48.67;9.93;;;5.90;99.90;;;;;;7380491;19;20026;-65
2024/02/20 01:26:46;;;;;;;49.78;8.50;;;5.90;99.90;;;;;;7379237;19;20015;-64
2024/02/20 01:29:13;;;;;;;50.47;8.48;;;6.00;99.90;;;;;;7379539;19;20054;-65
2024/02/20 01:31:39;;;;;;;59.83;9.50;;;6.00;99.90;;;;;;7378901;19;20048;-64
2024/02/20 01:34:05;;;;;;;52.30;7.78;;;5.90;99.90;;;;;;7377027;19;20024;-67
2024/02/20 01:36:32;;;;;;;53.88;9.43;;;5.90;99.90;;;;;;7371171;19;20023;-66
2024/02/20 01:38:59;;;;;;;62.67;8.95;;;5.90;99.90;;;;;;7372961;19;20499;-66
2024/02/20 01:41:25;;;;;;;61.15;8.52;;;5.90;99.90;;;;;;7377373;19;20041;-65
2024/02/20 01:43:51;;;;;;;49.97;7.90;;;5.90;99.90;;;;;;7380459;19;20035;-65
2024/02/20 01:46:22;;;;;;;48.38;9.00;;;5.90;99.90;;;;;;7371830;19;20058;-67
2024/02/20 01:48:52;;;;;;;55.15;8.65;;;5.90;99.90;;;;;;7369715;19;20477;-66
2024/02/20 01:51:22;;;;;;;49.35;9.55;;;5.90;99.90;;;;;;7372739;19;20022;-66
2024/02/20 01:53:50;;;;;;;51.85;9.13;;;5.90;99.90;;;;;;7370385;19;20667;-66
2024/02/20 01:56:18;;;;;;;45.92;8.52;;;5.90;99.90;;;;;;7374502;19;20031;-66
2024/02/20 01:58:44;;;;;;;43.75;7.90;;;5.90;99.90;;;;;;7377089;19;20014;-66
2024/02/20 02:01:10;;;;;;;51.30;8.50;;;5.90;99.90;;;;;;7373367;19;20098;-66
2024/02/20 02:03:36;;;;;;;51.60;9.27;;;5.90;99.90;;;;;;7371571;19;20023;-66
2024/02/20 02:06:03;;;;;;;51.78;8.23;;;5.90;99.90;;;;;;7378050;19;20038;-64
2024/02/20 02:08:30;;;;;;;51.92;8.27;;;5.90;99.90;;;;;;7385602;19;20031;-64
2024/02/20 02:10:56;;;;;;;42.70;7.60;;;6.00;99.90;;;;;;7384769;19;20029;-64
2024/02/20 02:13:22;;;;;;;47.90;7.75;;;6.00;99.90;;;;;;7386991;19;20023;-65
2024/02/20 02:15:48;;;;;;;55.67;8.85;;;6.00;99.90;;;;;;7379985;19;20050;-64
2024/02/20 02:18:15;;;;;;;45.75;7.55;;;6.00;99.90;;;;;;7382750;19;20786;-65
2024/02/20 02:20:42;;;;;;;39.85;7.22;;;5.90;99.90;;;;;;7385068;19;20018;-65
2024/02/20 02:23:09;;;;;;;50.03;8.25;;;6.00;99.90;;;;;;7386527;19;20035;-65
2024/02/20 02:25:36;;;;;;;46.35;7.45;;;6.00;99.90;;;;;;7385909;19;20053;-65
2024/02/20 02:28:03;;;;;;;56.65;8.20;;;6.00;99.90;;;;;;7382730;19;20022;-64
2024/02/20 02:30:30;;;;;;;56.00;7.75;;;6.00;99.90;;;;;;7379080;19;20035;-66
2024/02/20 02:32:57;;;;;;;50.33;8.80;;;6.00;99.90;;;;;;7374544;19;20794;-66
2024/02/20 02:35:24;;;;;;;57.95;9.38;;;6.00;99.90;;;;;;7377966;19;20877;-66
2024/02/20 02:37:51;;;;;;;44.10;7.50;;;6.00;99.90;;;;;;7372435;19;20022;-66
2024/02/20 02:40:18;;;;;;;49.20;7.45;;;5.90;99.90;;;;;;7379275;19;20085;-64
2024/02/20 02:42:45;;;;;;;52.85;8.18;;;5.90;99.90;;;;;;7382480;19;20082;-64
2024/02/20 02:45:12;;;;;;;41.20;8.07;;;5.90;99.90;;;;;;7385381;19;20022;-64
2024/02/20 02:47:39;;;;;;;46.85;7.22;;;6.00;99.90;;;;;;7380704;19;20106;-64
2024/02/20 02:50:06;;;;;;;56.13;7.03;;;6.00;99.90;;;;;;7385042;19;20026;-64
2024/02/20 02:52:34;;;;;;;51.00;7.13;;;6.00;99.90;;;;;;7380552;19;20048;-65
2024/02/20 02:55:01;;;;;;;46.08;7.90;;;5.90;99.90;;;;;;7383787;19;20082;-66
2024/02/20 02:57:28;;;;;;;40.28;7.00;;;6.00;99.90;;;;;;7383891;19;20022;-64
2024/02/20 02:59:55;;;;;;;52.50;7.90;;;6.00;99.90;;;;;;7383219;19;20487;-65
2024/02/20 03:02:22;;;;;;;43.17;7.47;;;6.00;99.90;;;;;;7379770;19;20015;-66
2024/02/20 03:04:49;;;;;;;42.33;6.68;;;6.00;99.90;;;;;;7372483;19;20019;-67
2024/02/20 03:07:15;;;;;;;41.45;6.38;;;6.00;99.90;;;;;;7381026;19;20102;-65
2024/02/20 03:09:41;;;;;;;39.85;7.75;;;5.90;99.90;;;;;;7375833;19;20018;-67
2024/02/20 03:12:08;;;;;;;42.25;7.45;;;5.90;99.90;;;;;;7373910;19;20029;-65
2024/02/20 03:14:35;;;;;;;44.63;6.28;;;5.90;99.90;;;;;;7380831;19;20096;-66
2024/02/20 03:17:01;;;;;;;49.42;7.47;;;5.90;99.90;;;;;;7373405;19;20014;-66
2024/02/20 03:19:27;;;;;;;46.22;6.85;;;5.90;99.90;;;;;;7379214;19;20032;-64
2024/02/20 03:21:54;;;;;;;44.80;6.78;;;5.90;99.90;;;;;;7378848;19;20025;-65
2024/02/20 03:24:20;;;;;;;42.78;7.90;;;5.80;99.90;;;;;;7376400;19;20023;-67
2024/02/20 03:26:46;;;;;;;46.13;7.07;;;5.80;99.90;;;;;;7368015;19;20804;-67
2024/02/20 03:29:13;;;;;;;45.05;6.28;;;5.80;99.90;;;;;;7381305;19;20023;-65
2024/02/20 03:31:39;;;;;;;39.38;7.63;;;5.70;99.90;;;;;;7377957;19;20033;-65
2024/02/20 03:34:08;;;;;;;44.47;7.68;;;5.70;99.90;;;;;;7381038;19;20022;-69
2024/02/20 03:36:34;;;;;;;38.70;7.47;;;5.60;99.90;;;;;;7385445;19;20140;-66
2024/02/20 03:39:02;;;;;;;35.10;6.03;;;5.60;99.90;;;;;;7381283;19;20889;-66
2024/02/20 03:41:28;;;;;;;37.13;6.55;;;5.60;99.90;;;;;;7383452;19;20361;-65
2024/02/20 03:43:55;;;;;;;42.78;7.25;;;5.60;99.90;;;;;;7377943;19;20495;-66
2024/02/20 03:46:24;;;;;;;51.42;7.13;;;5.60;99.90;;;;;;7374605;19;20343;-67
2024/02/20 03:48:50;;;;;;;40.13;7.13;;;5.50;99.90;;;;;;7372809;19;20011;-67
2024/02/20 03:51:18;;;;;;;38.45;6.68;;;5.50;99.90;;;;;;7376723;19;20023;-67
2024/02/20 03:53:44;;;;;;;41.45;6.13;;;5.40;99.90;;;;;;7374263;19;20056;-65
2024/02/20 03:56:12;;;;;;;37.05;6.75;;;5.40;99.90;;;;;;7381695;19;20034;-66
2024/02/20 03:58:39;;;;;;;49.90;7.03;;;5.40;99.90;;;;;;7376875;19;20014;-67
2024/02/20 04:01:08;;;;;;;47.10;6.68;;;5.40;99.90;;;;;;7377615;19;20561;-67
2024/02/20 04:03:35;;;;;;;39.63;6.90;;;5.30;99.90;;;;;;7377558;19;20022;-66
2024/02/20 04:06:02;;;;;;;37.00;6.68;;;5.30;99.90;;;;;;7380303;19;20782;-66
2024/02/20 04:08:29;;;;;;;49.05;7.40;;;5.30;99.90;;;;;;7376387;19;20019;-64
2024/02/20 04:10:56;;;;;;;45.72;6.47;;;5.30;99.90;;;;;;7376686;19;20549;-64
2024/02/20 04:13:25;;;;;;;37.78;5.70;;;5.20;99.90;;;;;;7379195;19;20058;-64
2024/02/20 04:15:52;;;;;;;48.55;6.97;;;5.20;99.90;;;;;;7371193;19;20022;-66
2024/02/20 04:18:19;;;;;;;45.97;7.15;;;5.20;99.90;;;;;;7370864;19;21054;-66
2024/02/20 04:20:46;;;;;;;42.05;5.97;;;5.10;99.90;;;;;;7368893;19;20085;-66
2024/02/20 04:23:13;;;;;;;36.58;7.55;;;5.10;99.90;;;;;;7370370;19;20030;-67
2024/02/20 04:25:41;;;;;;;44.42;7.70;;;5.10;99.90;;;;;;7369830;19;20388;-66
2024/02/20 04:28:08;;;;;;;45.75;6.78;;;5.10;99.90;;;;;;7373100;19;20534;-66
2024/02/20 04:30:49;;;;;;;45.60;6.10;;;5.10;99.90;;;;;;7374590;19;20054;-65
2024/02/20 04:33:30;;;;;;;43.43;7.23;;;5.10;99.90;;;;;;7379404;19;20023;-64
2024/02/20 04:36:12;;;;;;;43.22;7.88;;;5.10;99.90;;;;;;7372926;19;20279;-64
2024/02/20 04:38:56;;;;;;;41.58;6.57;;;5.10;99.90;;;;;;7375798;19;20054;-65
2024/02/20 04:41:37;;;;;;;40.08;7.05;;;5.00;99.90;;;;;;7373839;19;20019;-65
2024/02/20 04:44:19;;;;;;;40.92;7.40;;;5.00;99.90;;;;;;7374962;19;20015;-65
2024/02/20 04:47:02;;;;;;;46.42;7.28;;;5.10;99.90;;;;;;7376447;19;20490;-65
2024/02/20 04:49:43;;;;;;;49.53;7.07;;;5.00;99.90;;;;;;7374992;19;20515;-66
2024/02/20 04:52:25;;;;;;;55.42;6.97;;;5.00;99.90;;;;;;7368923;19;20025;-67
2024/02/20 04:55:06;;;;;;;44.42;7.78;;;5.00;99.90;;;;;;7377144;19;20755;-65
2024/02/20 04:57:47;;;;;;;34.47;7.63;;;5.00;99.90;;;;;;7368024;19;20018;-67
2024/02/20 05:00:28;;;;;;;51.50;7.53;;;5.00;99.90;;;;;;7370819;19;20190;-66
2024/02/20 05:03:10;;;;;;;39.97;6.20;;;5.00;99.90;;;;;;7368160;19;20021;-66
2024/02/20 05:05:51;;;;;;;60.38;7.13;;;5.00;99.90;;;;;;7371759;19;20030;-66
2024/02/20 05:08:32;;;;;;;46.92;7.07;;;5.00;99.90;;;;;;7375451;19;20022;-65
2024/02/20 05:11:14;;;;;;;43.28;7.05;;;5.10;99.90;;;;;;7379792;19;20014;-65
2024/02/20 05:13:55;;;;;;;48.05;7.70;;;5.10;99.90;;;;;;7371614;19;20023;-64
2024/02/20 05:16:36;;;;;;;44.67;7.13;;;5.20;99.90;;;;;;7379069;19;20054;-66
2024/02/20 05:19:03;;;;;;;42.60;6.35;;;5.20;99.90;;;;;;7368123;19;20018;-67
2024/02/20 05:21:30;;;;;;;36.20;5.38;;;5.30;99.90;;;;;;7373404;19;20026;-64
2024/02/20 05:23:57;;;;;;;38.92;6.55;;;5.30;99.90;;;;;;7375763;19;20022;-67
2024/02/20 05:26:24;;;;;;;51.63;7.55;;;5.30;99.90;;;;;;7371788;19;20060;-67
2024/02/20 05:28:51;;;;;;;52.53;8.30;;;5.30;99.90;;;;;;7370724;19;20043;-66
2024/02/20 05:31:26;;;;;;;60.60;7.28;;;5.30;99.90;;;;;;7371584;19;20022;-66
2024/02/20 05:33:53;;;;;;;41.95;7.07;;;5.40;99.90;;;;;;7376691;19;20029;-65
2024/02/20 05:36:21;;;;;;;36.95;6.60;;;5.40;99.90;;;;;;7387212;19;20019;-65
2024/02/20 05:38:48;;;;;;;50.85;7.03;;;5.40;99.90;;;;;;7380162;19;20055;-64
2024/02/20 05:41:19;;;;;;;38.00;7.47;;;5.40;99.90;;;;;;7388163;19;20043;-64
2024/02/20 05:43:46;;;;;;;45.33;7.30;;;5.50;99.90;;;;;;7385117;19;20022;-65
2024/02/20 05:46:14;;;;;;;46.30;7.85;;;5.50;99.90;;;;;;7384676;19;20022;-64
2024/02/20 05:48:41;;;;;;;38.28;7.85;;;5.60;99.90;;;;;;7384495;19;20046;-65
2024/02/20 05:51:14;;;;;;;43.40;7.35;;;5.60;99.90;;;;;;7382252;19;20015;-65
2024/02/20 05:53:41;;;;;;;44.42;7.43;;;5.60;99.90;;;;;;7382301;19;20519;-64
2024/02/20 05:56:09;;;;;;;38.78;7.13;;;5.60;99.90;;;;;;7383885;19;20018;-64
2024/02/20 05:58:37;;;;;;;41.30;7.90;;;5.60;99.90;;;;;;7384989;19;20038;-65
2024/02/20 06:01:08;;;;;;;38.10;6.68;;;5.60;99.90;;;;;;7383260;19;20018;-65
2024/02/20 06:03:36;;;;;;;38.85;6.68;;;5.60;99.90;;;;;;7375549;19;20388;-64
2024/02/20 06:06:10;;;;;;;42.20;7.18;;;5.60;99.90;;;;;;7381155;19;20018;-64
2024/02/20 06:08:42;;;;;;;49.13;7.60;;;5.60;99.90;;;;;;7383144;19;20015;-64
2024/02/20 06:11:17;;;;;;;50.58;7.70;;;5.60;99.90;;;;;;7380000;19;20022;-64
2024/02/20 06:13:45;;;;;;;45.50;7.72;;;5.60;99.90;;;;;;7380170;19;20042;-65
2024/02/20 06:16:12;;;;;;;41.35;7.85;;;5.60;99.90;;;;;;7380460;19;20022;-65
2024/02/20 06:18:39;;;;;;;38.47;6.90;;;5.60;99.90;;;;;;7380942;19;20023;-66
2024/02/20 06:21:10;;;;;;;48.95;7.78;;;5.60;99.90;;;;;;7379966;19;20029;-68
2024/02/20 06:23:38;;;;;;;44.92;6.43;;;5.70;99.90;;;;;;7378926;19;20118;-67
2024/02/20 06:26:08;;;;;;;49.38;7.85;;;5.60;99.90;;;;;;7375215;19;20565;-65
2024/02/20 06:28:34;;;;;;;43.80;7.35;;;5.70;99.90;;;;;;7381103;19;20018;-65
2024/02/20 06:31:06;;;;;;;37.80;7.03;;;5.70;99.90;;;;;;7380400;19;20092;-64
2024/02/20 06:33:33;;;;;;;43.60;7.97;;;5.70;99.90;;;;;;7382395;19;21063;-64
2024/02/20 06:35:59;;;;;;;42.25;8.18;;;5.80;99.90;;;;;;7377917;19;20482;-64
2024/02/20 06:38:31;;;;;;;45.58;7.53;;;5.80;99.90;;;;;;7378171;19;20043;-64
2024/02/20 06:41:01;;;;;;;41.88;7.00;;;5.80;99.90;;;;;;7373529;19;20018;-66
2024/02/20 06:43:28;;;;;;;36.88;7.50;;;5.80;99.90;;;;;;7374378;19;20029;-65
2024/02/20 06:45:54;;;;;;;44.42;7.03;;;5.90;99.90;;;;;;7380007;19;20082;-65
2024/02/20 06:48:21;;;;;;;46.72;7.38;;;5.90;99.90;;;;;;7376737;19;20018;-67
2024/02/20 06:50:47;;;;;;;33.40;6.43;;;6.00;99.90;;;;;;7375399;19;20022;-64
2024/02/20 06:53:13;;;;;;;39.78;6.90;;;6.10;99.90;;;;;;7371215;19;20015;-64
2024/02/20 06:55:40;;;;;;;44.42;7.75;;;6.10;99.90;;;;;;7374457;19;20019;-66
2024/02/20 06:58:06;;;;;;;46.22;7.70;;;6.10;99.90;;;;;;7372894;19;20060;-65
2024/02/20 07:00:32;;;;;;;38.70;6.60;;;6.10;99.90;;;;;;7373740;19;20027;-67
2024/02/20 07:02:58;;;;;;;47.58;8.15;;;6.20;99.90;;;;;;7374886;19;20053;-67
2024/02/20 07:05:25;;;;;;;47.65;7.22;;;6.20;99.90;;;;;;7378788;19;20602;-65
2024/02/20 07:07:51;;;;;;;38.85;7.28;;;6.30;99.90;;;;;;7374339;19;20021;-67
2024/02/20 07:10:17;;;;;;;47.03;8.27;;;6.30;99.90;;;;;;7373199;19;20015;-67
2024/02/20 07:12:44;;;;;;;40.75;7.75;;;6.30;99.90;;;;;;7374905;19;20026;-64
2024/02/20 07:15:10;;;;;;;43.22;7.18;;;6.30;99.90;;;;;;7377558;19;20014;-65
2024/02/20 07:17:37;;;;;;;31.08;6.75;;;6.40;99.90;;;;;;7377430;19;20125;-64
2024/02/20 07:20:04;;;;;;;37.47;7.75;;;6.40;99.90;;;;;;7378728;19;20018;-67
2024/02/20 07:22:32;;;;;;;40.25;7.28;;;6.40;99.90;;;;;;7379746;19;20018;-64
2024/02/20 07:24:59;;;;;;;29.48;6.57;;;6.50;99.90;;;;;;7378595;19;20816;-65
2024/02/20 07:27:26;;;;;;;51.60;8.85;;;6.60;99.90;;;;;;7378045;19;20053;-66
2024/02/20 07:29:54;;;;;;;35.70;7.85;;;6.60;99.90;;;;;;7374792;19;20022;-62
2024/02/20 07:32:21;;;;;;;44.72;9.00;;;6.60;99.90;;;;;;7373343;19;20026;-66
2024/02/20 07:34:50;;;;;;;37.50;7.68;;;6.60;99.90;;;;;;7372496;19;20095;-68
2024/02/20 07:37:17;;;;;;;44.97;9.75;;;6.70;99.90;;;;;;7376021;19;20018;-68
2024/02/20 07:39:45;;;;;;;41.65;7.72;;;6.70;99.90;;;;;;7371016;19;20018;-68
2024/02/20 07:42:13;;;;;;;38.70;8.57;;;6.70;99.90;;;;;;7373990;19;20018;-69
2024/02/20 07:44:40;;;;;;;46.60;7.68;;;6.70;99.90;;;;;;7370244;19;20018;-68
2024/02/20 07:47:07;;;;;;;46.88;6.97;;;6.80;99.90;;;;;;7372656;19;20056;-68
2024/02/20 07:49:37;;;;;;;45.75;9.40;;;6.80;99.90;;;;;;7368422;19;20094;-68
2024/02/20 07:52:08;;;;;;;45.03;7.65;;;6.80;99.90;;;;;;7365719;19;22380;-67
2024/02/20 07:54:34;;;;;;;39.50;8.30;;;6.80;99.90;;;;;;7366880;19;20029;-68
2024/02/20 07:57:01;;;;;;;38.00;8.00;;;6.80;99.90;;;;;;7369018;19;20022;-68
2024/02/20 07:59:27;;;;;;;34.30;8.13;;;6.90;99.90;;;;;;7373668;19;20010;-63
2024/02/20 08:01:54;;;;;;;41.08;8.07;;;6.90;99.90;;;;;;7373622;19;20491;-66
2024/02/20 08:04:20;;;;;;;46.10;8.18;;;6.90;99.90;;;;;;7373530;19;20403;-66
2024/02/20 08:06:46;;;;;;;47.83;8.48;;;7.00;99.90;;;;;;7369994;19;20726;-65
2024/02/20 08:09:13;;;;;;;36.63;8.13;;;7.00;99.90;;;;;;7372037;19;20018;-63
2024/02/20 08:11:39;;;;;;;35.47;8.38;;;7.00;99.90;;;;;;7374927;19;20018;-68
2024/02/20 08:14:05;;;;;;;42.40;9.20;;;7.10;99.90;;;;;;7374738;19;20026;-67
2024/02/20 08:16:32;;;;;;;35.53;8.48;;;7.10;99.90;;;;;;7373073;19;20597;-68
2024/02/20 08:18:59;;;;;;;40.30;8.00;;;7.10;99.90;;;;;;7378729;19;20455;-64
2024/02/20 08:21:27;;;;;;;41.90;7.95;;;7.10;99.90;;;;;;7376969;19;20030;-64
2024/02/20 08:23:53;;;;;;;48.08;9.35;;;7.20;99.90;;;;;;7375270;19;20015;-64
2024/02/20 08:26:20;;;;;;;45.90;8.40;;;7.30;99.90;;;;;;7361172;19;20348;-63
2024/02/20 08:28:46;;;;;;;34.28;8.02;;;7.30;99.90;;;;;;7364611;19;20035;-67
2024/02/20 08:31:18;;;;;;;37.17;8.55;;;7.30;99.90;;;;;;7365577;19;20022;-68
2024/02/20 08:33:45;;;;;;;46.97;9.40;;;7.40;99.90;;;;;;7368752;19;20495;-64
2024/02/20 08:36:12;;;;;;;36.35;9.30;;;7.40;99.90;;;;;;7367827;19;20058;-68
2024/02/20 08:38:38;;;;;;;41.13;8.85;;;7.40;99.90;;;;;;7370654;19;20382;-64
2024/02/20 08:41:04;;;;;;;37.90;9.23;;;7.40;99.90;;;;;;7368494;19;20019;-68
2024/02/20 08:43:31;;;;;;;43.08;9.27;;;7.50;99.90;;;;;;7368162;19;20372;-67
2024/02/20 08:45:57;;;;;;;50.53;9.70;;;7.60;99.90;;;;;;7367763;19;20026;-67
2024/02/20 08:48:23;;;;;;;36.42;10.38;;;7.60;99.90;;;;;;7366140;19;20074;-68
2024/02/20 08:50:50;;;;;;;39.25;8.80;;;7.70;99.90;;;;;;7370863;19;20690;-67
2024/02/20 08:53:17;;;;;;;37.35;10.02;;;7.80;99.90;;;;;;7371572;19;20019;-68
2024/02/20 08:55:45;;;;;;;45.38;10.10;;;7.80;99.90;;;;;;7370141;19;20046;-68
2024/02/20 08:58:12;;;;;;;41.65;9.60;;;7.90;99.90;;;;;;7375842;19;20022;-65
2024/02/20 09:00:39;;;;;;;37.90;9.23;;;8.00;99.90;;;;;;7378723;19;20825;-63
2024/02/20 09:03:06;;;;;;;43.42;9.52;;;8.10;99.90;;;;;;7379045;19;20030;-64
2024/02/20 09:05:34;;;;;;;43.17;10.45;;;8.20;99.90;;;;;;7374265;19;20082;-67
2024/02/20 09:08:01;;;;;;;34.85;9.38;;;8.20;99.90;;;;;;7368180;19;20452;-68
2024/02/20 09:10:28;;;;;;;41.38;10.13;;;8.30;99.90;;;;;;7369577;19;21573;-70
2024/02/20 09:12:56;;;;;;;44.53;11.23;;;8.30;99.90;;;;;;7370740;19;20097;-68
2024/02/20 09:15:23;;;;;;;32.03;10.32;;;8.40;99.90;;;;;;7365961;19;20039;-68
2024/02/20 09:17:50;;;;;;;43.20;12.48;;;8.40;99.90;;;;;;7369868;19;20007;-68
2024/02/20 09:20:17;;;;;;;36.58;11.57;;;8.40;99.90;;;;;;7376171;19;20053;-64
2024/02/20 09:22:44;;;;;;;42.50;13.70;;;8.40;99.90;;;;;;7378190;19;20022;-66
2024/02/20 09:25:11;;;;;;;44.67;13.05;;;8.50;99.90;;;;;;7378010;19;20029;-65
2024/02/20 09:27:38;;;;;;;40.03;10.75;;;8.50;99.90;;;;;;7379053;19;20014;-66
2024/02/20 09:30:06;;;;;;;40.63;12.63;;;8.50;99.90;;;;;;7376960;19;20655;-65
2024/02/20 09:32:33;;;;;;;30.70;11.45;;;8.50;99.90;;;;;;7379343;19;20018;-65
2024/02/20 09:35:00;;;;;;;40.97;12.77;;;8.50;99.90;;;;;;7374508;19;20128;-63
2024/02/20 09:37:27;;;;;;;46.60;12.88;;;8.50;99.90;;;;;;7374811;19;20094;-64
2024/02/20 09:39:54;;;;;;;38.38;12.68;;;8.50;99.90;;;;;;7378050;19;20483;-64
2024/02/20 09:42:27;;;;;;;37.25;12.27;;;8.50;99.90;;;;;;7374661;19;20022;-67
2024/02/20 09:44:55;;;;;;;35.35;12.55;;;8.60;99.90;;;;;;7368580;19;20582;-67
2024/02/20 09:47:23;;;;;;;39.22;11.40;;;8.60;99.90;;;;;;7365708;19;20023;-67
2024/02/20 09:49:50;;;;;;;33.72;11.02;;;8.60;99.90;;;;;;7366450;19;20022;-67
2024/02/20 09:52:20;;;;;;;38.63;11.27;;;8.60;99.90;;;;;;7368007;19;20019;-67
2024/02/20 09:54:50;;;;;;;37.17;11.40;;;8.60;99.90;;;;;;7369252;19;20018;-67
2024/02/20 09:57:16;;;;;;;36.03;13.88;;;8.60;99.90;;;;;;7373258;19;20018;-65
2024/02/20 09:59:46;;;;;;;36.47;13.27;;;8.60;99.90;;;;;;7372546;19;20057;-65
2024/02/20 10:02:20;;;;;;;37.38;12.65;;;8.70;99.90;;;;;;7376725;19;20078;-64
2024/02/20 10:04:46;;;;;;;41.22;12.68;;;8.70;99.90;;;;;;7377343;19;20029;-64
2024/02/20 10:07:17;;;;;;;37.03;12.38;;;8.70;99.90;;;;;;7375888;19;20015;-65
2024/02/20 10:09:44;;;;;;;38.90;11.73;;;8.70;99.90;;;;;;7375382;19;20018;-64
2024/02/20 10:12:23;;;;;;;43.35;13.15;;;8.70;99.90;;;;;;7374292;19;20039;-64
2024/02/20 10:14:50;;;;;;;38.92;12.48;;;8.80;99.90;;;;;;7373042;19;20576;-64
2024/02/20 10:17:17;;;;;;;38.17;12.68;;;8.80;99.90;;;;;;7371673;19;20022;-64
2024/02/20 10:19:45;;;;;;;37.10;11.73;;;8.90;99.90;;;;;;7375436;19;20019;-64
2024/02/20 10:22:11;;;;;;;40.00;11.63;;;8.90;99.90;;;;;;7381673;19;20344;-64
2024/02/20 10:24:38;;;;;;;39.85;11.20;;;8.90;99.90;;;;;;7382698;19;20018;-65
2024/02/20 10:27:08;;;;;;;45.15;11.65;;;9.00;99.90;;;;;;7378338;19;20034;-64
2024/02/20 10:29:35;;;;;;;39.58;11.23;;;9.00;99.90;;;;;;7379573;19;20019;-64
2024/02/20 10:32:01;;;;;;;35.85;12.60;;;9.10;99.90;;;;;;7375254;19;20026;-67
2024/02/20 10:34:27;;;;;;;42.17;12.27;;;9.10;99.90;;;;;;7377464;19;20011;-67
2024/02/20 10:37:06;;;;;;;36.63;12.85;;;9.20;99.90;;;;;;7373892;19;20022;-67
2024/02/20 10:39:33;;;;;;;42.22;12.32;;;9.20;99.90;;;;;;7373494;19;20019;-67
2024/02/20 10:42:05;;;;;;;37.10;11.85;;;9.30;99.90;;;;;;7377840;19;20022;-67
2024/02/20 10:44:33;;;;;;;38.92;11.05;;;9.40;99.90;;;;;;7374074;19;20018;-67
2024/02/20 10:47:05;;;;;;;38.05;10.60;;;9.60;99.90;;;;;;7375257;19;20053;-65
2024/02/20 10:49:34;;;;;;;32.03;10.50;;;9.60;99.90;;;;;;7377202;19;20795;-65
2024/02/20 10:52:05;;;;;;;32.15;10.13;;;9.70;99.90;;;;;;7376596;19;20059;-65
2024/02/20 10:54:33;;;;;;;34.08;9.73;;;9.80;99.90;;;;;;7379319;19;20023;-66
2024/02/20 10:57:01;;;;;;;28.10;9.52;;;9.90;99.90;;;;;;7381174;19;20611;-65
2024/02/20 10:59:29;;;;;;;34.30;10.07;;;9.90;99.90;;;;;;7379911;19;20014;-65
2024/02/20 11:01:56;;;;;;;37.65;11.88;;;9.90;99.90;;;;;;7380859;19;20945;-65
2024/02/20 11:04:24;;;;;;;31.27;9.57;;;10.00;99.90;;;;;;7382217;19;20026;-64
2024/02/20 11:06:51;;;;;;;36.00;10.18;;;9.90;99.90;;;;;;7374561;19;20926;-65
2024/02/20 11:09:19;;;;;;;36.33;10.23;;;10.00;99.90;;;;;;7378459;19;20014;-65
2024/02/20 11:11:46;;;;;;;39.80;10.25;;;9.90;99.90;;;;;;7384603;19;20042;-65
2024/02/20 11:14:24;;;;;;;31.40;9.13;;;9.90;99.90;;;;;;7384303;19;20668;-65
2024/02/20 11:16:51;;;;;;;35.67;9.75;;;10.00;99.90;;;;;;7379649;19;20046;-64
2024/02/20 11:19:28;;;;;;;31.58;9.90;;;10.00;99.90;;;;;;7377910;19;20018;-66
2024/02/20 11:22:06;;;;;;;28.35;8.90;;;10.10;99.90;;;;;;7375416;19;20019;-67
2024/02/20 11:24:33;;;;;;;31.00;8.55;;;10.10;99.90;;;;;;7370488;19;20026;-68
2024/02/20 11:27:04;;;;;;;38.88;10.50;;;10.10;99.90;;;;;;7372738;19;20023;-65
2024/02/20 11:29:30;;;;;;;29.58;10.13;;;10.10;99.90;;;;;;7378731;19;20033;-65
2024/02/20 11:32:11;;;;;;;35.08;9.93;;;10.20;99.90;;;;;;7383058;19;20600;-65
2024/02/20 11:34:38;;;;;;;30.33;10.13;;;10.20;99.90;;;;;;7382754;19;20015;-64
2024/02/20 11:37:09;;;;;;;36.38;11.55;;;10.20;99.90;;;;;;7380005;19;20390;-67
2024/02/20 11:39:35;;;;;;;32.65;10.02;;;10.10;99.90;;;;;;7365445;19;20018;-68
2024/02/20 11:42:02;;;;;;;42.65;10.98;;;10.10;99.90;;;;;;7371750;19;20018;-66
2024/02/20 11:44:36;;;;;;;30.50;10.32;;;10.20;99.90;;;;;;7373565;19;20026;-67
2024/02/20 11:47:04;;;;;;;36.85;9.60;;;10.20;99.90;;;;;;7370737;19;20758;-68
2024/02/20 11:49:32;;;;;;;32.80;10.30;;;10.10;99.90;;;;;;7370004;19;20098;-67
2024/02/20 11:52:07;;;;;;;34.03;9.13;;;10.20;99.90;;;;;;7367683;19;20018;-68
2024/02/20 11:54:33;;;;;;;31.52;9.05;;;10.10;99.90;;;;;;7366042;19;20022;-68
2024/02/20 11:57:01;;;;;;;30.25;8.90;;;10.00;99.90;;;;;;7367408;19;20022;-68
2024/02/20 11:59:28;;;;;;;30.80;8.57;;;10.10;99.90;;;;;;7367159;19;20019;-68
2024/02/20 12:01:55;;;;;;;32.53;9.02;;;10.10;99.90;;;;;;7367303;19;20057;-67
2024/02/20 12:04:28;;;;;;;29.65;8.30;;;10.10;99.90;;;;;;7364089;19;20032;-67
2024/02/20 12:06:54;;;;;;;31.95;9.32;;;10.10;99.90;;;;;;7369921;19;20033;-67
2024/02/20 12:09:21;;;;;;;31.95;7.88;;;10.10;99.90;;;;;;7367132;19;20030;-68
2024/02/20 12:11:50;;;;;;;27.73;9.02;;;10.10;99.90;;;;;;7366765;19;20090;-68
2024/02/20 12:14:17;;;;;;;33.45;8.23;;;10.10;99.90;;;;;;7369094;19;20025;-68
2024/02/20 12:16:43;;;;;;;36.40;7.47;;;10.20;99.90;;;;;;7369396;19;20375;-68
2024/02/20 12:19:10;;;;;;;24.73;6.35;;;10.20;99.90;;;;;;7366370;19;20022;-67
2024/02/20 12:21:38;;;;;;;32.80;8.15;;;10.20;99.90;;;;;;7368331;19;20478;-67
2024/02/20 12:24:10;;;;;;;28.73;8.10;;;10.20;99.90;;;;;;7367251;19;20026;-67
2024/02/20 12:26:37;;;;;;;;;;;10.10;99.90;;;;;;7369590;19;20724;-68
2024/02/20 12:29:07;;;;;;;;;;;10.10;99.90;;;;;;7365978;19;19918;-68
2024/02/20 12:31:37;;;;;;;;;;;10.10;99.90;;;;;;7369732;19;19949;-68
2024/02/20 12:34:05;;;;;;;;;;;10.00;99.90;;;;;;7370212;19;19922;-67
2024/02/20 12:36:33;;;;;;;;;;;10.00;99.90;;;;;;7368041;19;20625;-68
2024/02/20 12:39:06;;;;;;;;;;;10.00;99.90;;;;;;7366302;19;20486;-67
2024/02/20 12:41:33;;;;;;;;;;;10.00;99.90;;;;;;7367819;19;20340;-67
2024/02/20 12:44:00;;;;;;;;;;;10.10;99.90;;;;;;7367627;19;19930;-67
2024/02/20 12:46:27;;;;;;;;;;;10.10;99.90;;;;;;7368093;19;20185;-68
2024/02/20 12:48:54;;;;;;;;;;;10.10;99.90;;;;;;7365458;19;19926;-69
2024/02/20 12:51:21;;;;;;;;;;;10.30;99.90;;;;;;7366929;19;19915;-67
2024/02/20 12:53:48;;;;;;;;;;;10.30;99.90;;;;;;7365751;19;19931;-67